Flight Track Log - Related Links

Times and Time Zones

All times are in EDT time to prevent confusion due to time zone crossing. See the N964TW flight status page for this flight to view local times or setup timezone preferences in your user account.

Time Position Orientation Groundspeed Altitude Reporting Facility
EDT Latitude Longitude Course Direction KTS MPH feet Rate Location/Type
11:04AM 34.0283 -117.5891 276° West  Level FlightAware Approximate
11:05AM 33.9274 -117.5220 315° West  Level FlightAware Approximate
11:06AM 34.0333 -117.6500 140° Southeast 209 241 3,000  Level Southern California TRACON
11:07AM 33.9372 -117.5533 140° Southeast 237 273 5,900 1,078 Climbing Los Angeles Center
11:08AM 33.8836 -117.5000 145° Southeast 257 296 6,000 1,000 Climbing Los Angeles Center
11:09AM 33.8194 -117.4464 146° Southeast 283 326 7,900 2,200 Climbing Los Angeles Center
11:10AM 33.7533 -117.3928 110° East 283 326 10,400 1,700 Climbing Los Angeles Center
11:11AM 33.7250 -117.2975 96° East 283 326 11,300 1,400 Climbing Los Angeles Center
11:12AM 33.7139 -117.1600 95° East 334 384 13,200 2,050 Climbing Los Angeles Center
11:13AM 33.7044 -117.0250 96° East 365 420 15,400 2,000 Climbing Los Angeles Center
11:14AM 33.6928 -116.8903 97° East 394 453 17,200 1,800 Climbing Los Angeles Center
11:15AM 33.6792 -116.7478 96° East 412 474 19,000 1,850 Climbing Los Angeles Center
11:16AM 33.6672 -116.6053 96° East 424 488 20,900 1,650 Climbing Los Angeles Center
11:17AM 33.6553 -116.4581 97° East 434 499 22,300 1,450 Climbing Los Angeles Center
11:18AM 33.6408 -116.3083 94° East 447 514 23,800 1,350 Climbing Los Angeles Center
11:19AM 33.6328 -116.1711 76° East 447 514 25,000 1,400 Climbing Los Angeles Center
11:20AM 33.6639 -116.0239 69° East 442 509 26,600 1,600 Climbing Los Angeles Center
11:21AM 33.7075 -115.8839 69° East 442 509 28,200 1,500 Climbing Los Angeles Center
11:22AM 33.7511 -115.7464 69° East 442 509 29,600 1,350 Climbing Los Angeles Center
11:23AM 33.7944 -115.6089 70° East 442 509 30,900 700 Climbing Los Angeles Center
11:24AM 33.8356 -115.4761 70° East 432 497 31,000 200 Climbing Los Angeles Center
11:25AM 33.8764 -115.3431 70° East 426 490 31,300 800 Climbing Los Angeles Center
11:26AM 33.9172 -115.2100 70° East 426 490 32,600 850 Climbing Los Angeles Center
11:27AM 33.9558 -115.0794 70° East 421 484 33,000 200 Climbing Los Angeles Center
11:28AM 33.9944 -114.9511 69° East 415 478 33,000 -50 Level Los Angeles Center
11:29AM 34.0350 -114.8203 71° East 410 472 32,900 -50 Descending Los Angeles Center
11:30AM 34.0731 -114.6842 71° East 410 472 32,900  Level Los Angeles Center
11:31AM 34.1111 -114.5531 70° East 410 472 32,900  Level Los Angeles Center
11:33AM 34.1744 -114.3444 72° East 437 503 32,900 39 Level Albuquerque Center
11:34AM 34.2117 -114.2069 71° East 431 496 33,000 50 Climbing Albuquerque Center
11:35AM 34.2483 -114.0744 70° East 424 488 33,000  Level Albuquerque Center
11:36AM 34.2919 -113.9269 71° East 424 488 33,000  Level Albuquerque Center
11:37AM 34.3308 -113.7919 71° East 418 481 33,000  Level Albuquerque Center
11:38AM 34.3694 -113.6539 69° East 413 475 33,000  Level Albuquerque Center
11:39AM 34.4117 -113.5211 69° East 413 475 33,000  Level Albuquerque Center
11:40AM 34.4492 -113.4006 71° East 419 482 33,000  Level Albuquerque Center
11:41AM 34.4875 -113.2625 71° East 419 482 33,000  Level Albuquerque Center
11:42AM 34.5253 -113.1289 73° East 419 482 33,000  Level Albuquerque Center
11:43AM 34.5611 -112.9903 70° East 419 482 33,000  Level Albuquerque Center
11:44AM 34.6008 -112.8542 71° East 419 482 33,000  Level Albuquerque Center
11:45AM 34.6431 -112.7031 72° East 419 482 33,000  Level Albuquerque Center
11:46AM 34.6806 -112.5617 76° East 419 482 33,000  Level Albuquerque Center
11:47AM 34.7094 -112.4219 84° East 424 488 33,000  Level Albuquerque Center
11:48AM 34.7219 -112.2736 84° East 429 494 33,000  Level Albuquerque Center
11:49AM 34.7344 -112.1228 83° East 434 499 33,000  Level Albuquerque Center
11:50AM 34.7486 -111.9744 83° East 439 505 33,000  Level Albuquerque Center
11:51AM 34.7625 -111.8261 84° East 439 505 33,000  Level Albuquerque Center
11:55AM 34.8147 -111.2242 85° East 460 529 33,000  Level Albuquerque Center
11:56AM 34.8258 -111.0703 84° East 460 529 33,000  Level Albuquerque Center
11:57AM 34.8414 -110.8992 86° East 460 529 33,000  Level Albuquerque Center
11:58AM 34.8503 -110.7350 84° East 466 536 33,000  Level Albuquerque Center
11:59AM 34.8625 -110.5936 85° East 477 549 33,000  Level Albuquerque Center
12:00PM 34.8756 -110.4194 84° East 477 549 33,000  Level Albuquerque Center
12:01PM 34.8900 -110.2581 86° East 477 549 33,000  Level Albuquerque Center
12:02PM 34.9000 -110.0989 84° East 477 549 33,000  Level Albuquerque Center
12:03PM 34.9114 -109.9572 85° East 470 541 33,000  Level Albuquerque Center
12:04PM 34.9236 -109.7831 85° East 470 541 33,000  Level Albuquerque Center
12:06PM 34.9439 -109.4819 84° East 470 541 33,000  Level Albuquerque Center
12:07PM 34.9569 -109.3200 86° East 475 547 33,000  Level Albuquerque Center
12:08PM 34.9661 -109.1456 93° East 480 552 33,000  Level Albuquerque Center
12:09PM 34.9600 -108.9831 94° East 475 547 33,000  Level Albuquerque Center
12:10PM 34.9514 -108.8361 95° East 480 552 33,000  Level Albuquerque Center
12:11PM 34.9408 -108.6761 92° East 480 552 33,000  Level Albuquerque Center
12:12PM 34.9361 -108.5139 95° East 480 552 33,000  Level Albuquerque Center
12:13PM 34.9250 -108.3567 94° East 480 552 33,000  Level Albuquerque Center
12:14PM 34.9158 -108.1944 95° East 480 552 33,000  Level Albuquerque Center
12:15PM 34.9044 -108.0322 93° East 480 552 33,000  Level Albuquerque Center
12:16PM 34.8969 -107.8703 93° East 480 552 33,000  Level Albuquerque Center
12:17PM 34.8892 -107.7056 94° East 480 552 33,000  Level Albuquerque Center
12:18PM 34.8792 -107.5461 94° East 480 552 33,000  Level Albuquerque Center
12:19PM 34.8689 -107.3661 94° East 480 552 33,000  Level Albuquerque Center
12:20PM 34.8583 -107.2042 95° East 475 547 33,000  Level Albuquerque Center
12:21PM 34.8475 -107.0600 94° East 480 552 33,000  Level Albuquerque Center
12:22PM 34.8386 -106.8931 96° East 480 552 33,000  Level Albuquerque Center
12:23PM 34.8233 -106.7158 95° East 480 552 33,000  Level Albuquerque Center
12:24PM 34.8117 -106.5542 96° East 480 552 33,000  Level Albuquerque Center
12:25PM 34.7981 -106.3847 93° East 480 552 33,000  Level Albuquerque Center
12:26PM 34.7903 -106.2231 96° East 486 559 33,000  Level Albuquerque Center
12:27PM 34.7761 -106.0564 95° East 486 559 33,000  Level Albuquerque Center
12:28PM 34.7639 -105.8947 94° East 482 555 33,000  Level Albuquerque Center
12:29PM 34.7533 -105.7331 96° East 482 555 33,000  Level Albuquerque Center
12:30PM 34.7386 -105.5667 95° East 482 555 33,000  Level Albuquerque Center
12:31PM 34.7278 -105.4203 95° East 482 555 33,000  Level Albuquerque Center
12:32PM 34.7147 -105.2564 96° East 482 555 33,000  Level Albuquerque Center
12:33PM 34.7011 -105.0900 96° East 482 555 33,000  Level Albuquerque Center
12:34PM 34.6856 -104.9236 96° East 482 555 33,000  Level Albuquerque Center
12:35PM 34.6717 -104.7600 96° East 482 555 33,000  Level Albuquerque Center
12:36PM 34.6575 -104.5964 96° East 482 555 33,000  Level Albuquerque Center
12:37PM 34.6431 -104.4303 96° East 482 555 33,000  Level Albuquerque Center
12:38PM 34.6283 -104.2642 96° East 487 560 33,000  Level Albuquerque Center
12:39PM 34.6136 -104.1006 96° East 493 567 33,000  Level Albuquerque Center
12:40PM 34.5986 -103.9322 96° East 493 567 33,000  Level Albuquerque Center
12:41PM 34.5853 -103.7664 97° East 499 574 33,000  Level Albuquerque Center
12:43PM 34.5467 -103.3708 96° East 491 565 33,000  Level Fort Worth Center
12:44PM 34.5314 -103.2058 98° East 486 559 33,000  Level Fort Worth Center
12:45PM 34.5117 -103.0433 96° East 486 559 33,000  Level Fort Worth Center
12:46PM 34.4983 -102.8786 97° East 486 559 33,000  Level Fort Worth Center
12:47PM 34.4825 -102.7139 97° East 486 559 33,000  Level Fort Worth Center
12:48PM 34.4661 -102.5517 97° East 486 559 33,000  Level Fort Worth Center
12:49PM 34.4500 -102.3869 97° East 486 559 33,000  Level Fort Worth Center
12:50PM 34.4333 -102.2250 97° East 486 559 33,000  Level Fort Worth Center
12:51PM 34.4181 -102.0781 99° East 486 559 33,000  Level Fort Worth Center
12:52PM 34.3953 -101.8983 97° East 488 562 33,000  Level Fort Worth Center
12:53PM 34.3783 -101.7339 98° East 488 562 33,000  Level Fort Worth Center
12:54PM 34.3608 -101.5744 98° East 486 559 33,000  Level Fort Worth Center
12:55PM 34.3431 -101.4125 100° East 486 559 33,000  Level Fort Worth Center
12:56PM 34.3208 -101.2531 103° East 486 559 33,000  Level Fort Worth Center
12:57PM 34.2903 -101.0933 104° East 486 559 33,000  Level Fort Worth Center
12:58PM 34.2572 -100.9339 104° East 486 559 33,000  Level Fort Worth Center
12:59PM 34.2242 -100.7767 105° East 486 559 33,000  Level Fort Worth Center
01:00PM 34.1886 -100.6197 104° East 486 559 33,000  Level Fort Worth Center
01:01PM 34.1550 -100.4628 105° East 486 559 33,000  Level Fort Worth Center
01:02PM 34.1247 -100.3239 105° East 480 552 33,000  Level Fort Worth Center
01:03PM 34.0886 -100.1669 106° East 480 552 33,000  Level Fort Worth Center
01:04PM 34.0522 -100.0156 104° East 480 552 33,000  Level Fort Worth Center
01:05PM 34.0181 -99.8542 104° East 480 552 33,000  Level Fort Worth Center
01:06PM 33.9856 -99.6953 106° East 480 552 33,000  Level Fort Worth Center
01:07PM 33.9506 -99.5442 106° East 480 552 33,000  Level Fort Worth Center
01:08PM 33.9136 -99.3858 105° East 480 552 33,000  Level Fort Worth Center
01:09PM 33.8803 -99.2347 107° East 475 547 33,000 -1,200 Level Fort Worth Center
01:10PM 33.8389 -99.0689 107° East 475 547 30,600 -2,600 Descending Fort Worth Center
01:11PM 33.7992 -98.9156 107° East 475 547 27,800 -2,600 Descending Fort Worth Center
01:12PM 33.7611 -98.7700 106° East 475 547 25,400 -1,850 Descending Fort Worth Center
01:13PM 33.7272 -98.6247 112° Southeast 458 527 24,100 -1,650 Descending Fort Worth Center
01:14PM 33.6803 -98.4844 113° Southeast 453 521 22,100 -2,150 Descending Fort Worth Center
01:15PM 33.6333 -98.3492 113° Southeast 442 509 19,800 -2,200 Descending Fort Worth Center
01:17PM 33.5475 -98.1089 112° Southeast 411 473 15,500 -2,067 Descending Fort Worth Center
01:18PM 33.5022 -97.9764 112° Southeast 403 464 13,600 -1,600 Descending Fort Worth Center
01:19PM 33.4669 -97.8742 110° East 379 436 12,300 -1,290 Descending Fort Worth Center
01:20PM 33.4486 -97.8128 115° Southeast 350 403 11,600 -904 Descending FAA TRACON SMA TRACON (SMA)
01:20PM 33.4225 -97.7458 113° Southeast 318 366 11,200 -519 Descending FAA TRACON SMA TRACON (SMA)
01:21PM 33.3994 -97.6811 120° Southeast 305 351 10,900 -152 Descending FAA TRACON SMA TRACON (SMA)
01:22PM 33.3733 -97.6278 137° Southeast 301 346 11,000 -156 Climbing FAA TRACON SMA TRACON (SMA)
01:22PM 33.3308 -97.5811 131° Southeast 299 344 10,700 -684 Descending FAA TRACON SMA TRACON (SMA)
01:23PM 33.2969 -97.5353 132° Southeast 293 337 10,100 -1,185 Descending FAA TRACON SMA TRACON (SMA)
01:24PM 33.2600 -97.4864 134° Southeast 286 329 9,100 -1,407 Descending FAA TRACON SMA TRACON (SMA)
01:24PM 33.2231 -97.4406 134° Southeast 279 321 8,200 -1,407 Descending FAA TRACON SMA TRACON (SMA)
01:25PM 33.1858 -97.3953 134° Southeast 280 322 7,200 -1,333 Descending FAA TRACON SMA TRACON (SMA)
01:26PM 33.1525 -97.3539 134° Southeast 282 325 6,400 -1,125 Descending FAA TRACON SMA TRACON (SMA)
01:26PM 33.1158 -97.3083 134° Southeast 273 314 5,700 -975 Descending FAA TRACON SMA TRACON (SMA)
01:27PM 33.0806 -97.2644 134° Southeast 264 304 5,100 -900 Descending FAA TRACON SMA TRACON (SMA)

Login

Don't have an account? Register now (free) for customized features, flight alerts, and more!